Time;durP1;ratioP1;P1;durP2;ratioP2;P2;SDS_P1;SDS_P2;PMS_P1;PMS_P2;Temp;Humidity;BMP_temperature;BMP_pressure;BME280_temperature;BME280_humidity;BME280_pressure;Samples;Min_cycle;Max_cycle;Signal;HPM_P1;HPM_P2
2023/06/10 00:00:12;;;;;;;12.17;11.07;;;18.20;99.90;;;;;;5117300;28;20846;-62
2023/06/10 00:02:42;;;;;;;12.60;11.60;;;18.30;99.90;;;;;;5116881;28;20495;-62
2023/06/10 00:05:10;;;;;;;13.00;11.70;;;18.30;99.90;;;;;;5117658;28;20459;-62
2023/06/10 00:07:39;;;;;;;11.90;10.87;;;18.20;99.90;;;;;;5117383;28;20501;-62
2023/06/10 00:10:06;;;;;;;12.40;11.40;;;18.10;99.90;;;;;;5117296;28;20517;-62
2023/06/10 00:12:38;;;;;;;13.20;12.10;;;18.10;99.90;;;;;;5117236;28;20459;-62
2023/06/10 00:15:06;;;;;;;15.17;13.97;;;18.00;99.90;;;;;;5117520;28;20463;-62
2023/06/10 00:17:33;;;;;;;14.63;13.33;;;17.90;1.00;;;;;;5116869;28;20459;-62
2023/06/10 00:20:04;;;;;;;15.67;14.37;;;17.80;1.00;;;;;;5117188;28;20451;-62
2023/06/10 00:22:32;;;;;;;17.27;15.60;;;17.70;1.00;;;;;;5117438;28;20558;-62
2023/06/10 00:24:59;;;;;;;14.93;13.73;;;17.60;1.00;;;;;;5117413;28;20463;-62
2023/06/10 00:27:31;;;;;;;16.83;15.23;;;17.60;1.00;;;;;;5116666;28;20455;-62
2023/06/10 00:29:58;;;;;;;15.90;14.50;;;17.50;1.00;;;;;;5117007;28;20951;-62
2023/06/10 00:32:25;;;;;;;16.20;14.80;;;17.40;1.00;;;;;;5117236;28;20456;-62
2023/06/10 00:34:52;;;;;;;16.70;15.30;;;17.40;8.30;;;;;;5117118;28;20844;-62
2023/06/10 00:37:21;;;;;;;16.03;14.70;;;17.40;1.00;;;;;;5116943;28;20491;-62
2023/06/10 00:39:48;;;;;;;17.27;15.20;;;17.40;9.10;;;;;;5116940;28;20441;-62
2023/06/10 00:42:15;;;;;;;16.50;15.20;;;17.40;19.90;;;;;;5119125;28;20894;-62
2023/06/10 00:44:43;;;;;;;14.97;13.77;;;17.30;52.10;;;;;;5120987;28;20487;-62
2023/06/10 00:47:10;;;;;;;15.07;13.87;;;17.30;1.00;;;;;;5120188;28;20477;-62
2023/06/10 00:49:37;;;;;;;14.60;13.50;;;17.30;1.00;;;;;;5120133;28;20459;-62
2023/06/10 00:52:05;;;;;;;14.63;13.43;;;17.20;1.00;;;;;;5120381;28;20887;-62
2023/06/10 00:54:34;;;;;;;14.50;13.40;;;17.10;1.00;;;;;;5120468;28;20778;-62
2023/06/10 00:57:02;;;;;;;14.73;13.53;;;17.00;1.00;;;;;;5120371;28;20962;-62
2023/06/10 00:59:30;;;;;;;15.73;14.27;;;17.00;1.00;;;;;;5119901;28;20460;-62
2023/06/10 01:01:58;;;;;;;14.80;13.50;;;17.00;1.00;;;;;;5120091;28;20514;-62
2023/06/10 01:04:25;;;;;;;16.47;14.97;;;17.00;1.00;;;;;;5119715;28;20470;-62
2023/06/10 01:07:07;;;;;;;16.00;14.60;;;16.90;1.00;;;;;;5120242;28;20462;-62
2023/06/10 01:09:56;;;;;;;15.50;14.10;;;16.80;1.00;;;;;;5119958;28;20750;-62
2023/06/10 01:12:32;;;;;;;16.60;15.10;;;16.80;98.60;;;;;;5120052;28;20503;-62
2023/06/10 01:15:01;;;;;;;16.90;15.30;;;16.80;99.90;;;;;;5120131;28;20487;-63
2023/06/10 01:17:30;;;;;;;16.37;14.97;;;16.80;71.00;;;;;;5119963;28;20564;-62
2023/06/10 01:19:57;;;;;;;17.13;15.43;;;16.70;26.90;;;;;;5119946;28;20470;-62
2023/06/10 01:22:28;;;;;;;17.40;15.93;;;16.70;90.40;;;;;;5120064;28;20464;-62
2023/06/10 01:24:58;;;;;;;16.43;15.13;;;16.70;23.70;;;;;;5119623;28;20575;-62
2023/06/10 01:27:29;;;;;;;16.37;14.80;;;16.60;93.00;;;;;;5119696;28;20499;-62
2023/06/10 01:30:03;;;;;;;16.37;14.83;;;16.60;99.90;;;;;;5119517;28;20474;-62
2023/06/10 01:32:35;;;;;;;15.83;14.43;;;16.60;99.90;;;;;;5119724;28;20463;-62
2023/06/10 01:35:04;;;;;;;15.80;14.50;;;16.50;99.90;;;;;;5119988;28;20464;-62
2023/06/10 01:37:34;;;;;;;16.07;14.57;;;16.50;79.60;;;;;;5119433;28;20498;-62
2023/06/10 01:40:05;;;;;;;15.77;14.37;;;16.50;38.50;;;;;;5119738;28;20737;-62
2023/06/10 01:42:33;;;;;;;16.90;15.40;;;16.50;50.00;;;;;;5119442;28;20464;-62
2023/06/10 01:45:00;;;;;;;15.73;14.43;;;16.30;68.70;;;;;;5119757;27;20460;-62
2023/06/10 01:47:27;;;;;;;15.40;14.20;;;16.30;87.60;;;;;;5119189;28;20554;-62
2023/06/10 01:49:55;;;;;;;16.20;14.90;;;16.30;99.90;;;;;;5119385;28;20464;-62
2023/06/10 01:52:22;;;;;;;17.10;15.70;;;16.20;99.90;;;;;;5118784;28;20499;-62
2023/06/10 01:54:50;;;;;;;15.40;13.90;;;16.20;99.90;;;;;;5119423;28;20455;-62
2023/06/10 01:57:18;;;;;;;15.40;14.00;;;16.20;99.90;;;;;;5118829;28;20487;-63
2023/06/10 01:59:46;;;;;;;16.03;14.70;;;16.10;99.90;;;;;;5118995;28;20553;-62
2023/06/10 02:02:13;;;;;;;16.67;15.17;;;16.10;99.90;;;;;;5118722;28;20565;-62
2023/06/10 02:04:40;;;;;;;17.07;15.37;;;16.10;99.90;;;;;;5119317;28;20470;-62
2023/06/10 02:07:07;;;;;;;16.60;15.10;;;16.10;99.90;;;;;;5118910;28;20477;-62
2023/06/10 02:09:35;;;;;;;15.87;14.47;;;16.10;99.90;;;;;;5118490;28;20435;-63
2023/06/10 02:12:05;;;;;;;17.60;16.10;;;16.10;99.90;;;;;;5118829;28;20460;-63
2023/06/10 02:14:34;;;;;;;16.50;15.10;;;16.00;99.90;;;;;;5118684;28;20512;-62
2023/06/10 02:17:01;;;;;;;16.53;15.03;;;16.00;99.90;;;;;;5118536;28;20529;-62
2023/06/10 02:19:28;;;;;;;16.23;14.83;;;16.00;99.90;;;;;;5118480;28;20740;-62
2023/06/10 02:21:55;;;;;;;16.80;15.40;;;16.00;99.90;;;;;;5118531;28;20491;-62
2023/06/10 02:24:22;;;;;;;16.70;15.20;;;16.00;99.90;;;;;;5118692;28;20827;-63
2023/06/10 02:26:51;;;;;;;15.00;13.80;;;15.90;99.90;;;;;;5118696;28;20546;-62
2023/06/10 02:29:20;;;;;;;15.17;13.97;;;16.00;99.90;;;;;;5118407;28;20463;-62
2023/06/10 02:31:47;;;;;;;15.80;14.40;;;15.90;99.90;;;;;;5118545;28;20456;-62
2023/06/10 02:34:15;;;;;;;16.97;15.23;;;15.90;99.90;;;;;;5118317;28;20466;-62
2023/06/10 02:36:42;;;;;;;16.80;15.20;;;15.90;99.90;;;;;;5118448;28;20976;-62
2023/06/10 02:39:09;;;;;;;16.70;15.20;;;15.90;99.90;;;;;;5118466;28;20468;-62
2023/06/10 02:41:37;;;;;;;18.67;17.00;;;15.80;99.90;;;;;;5118491;28;20552;-62
2023/06/10 02:44:05;;;;;;;17.20;15.70;;;15.80;99.90;;;;;;5118298;28;20879;-63
2023/06/10 02:46:33;;;;;;;16.10;14.90;;;15.80;99.90;;;;;;5118322;28;20455;-63
2023/06/10 02:49:01;;;;;;;18.00;16.13;;;15.70;99.90;;;;;;5118496;28;20459;-63
2023/06/10 02:51:28;;;;;;;16.80;15.23;;;15.70;99.90;;;;;;5117761;28;20468;-63
2023/06/10 02:53:55;;;;;;;15.97;14.50;;;15.70;99.90;;;;;;5117958;28;20987;-62
2023/06/10 02:56:23;;;;;;;15.70;14.40;;;15.60;99.90;;;;;;5117892;28;20487;-62
2023/06/10 02:58:51;;;;;;;16.50;15.10;;;15.60;99.90;;;;;;5118132;28;20465;-62
2023/06/10 03:01:19;;;;;;;16.73;15.13;;;15.50;99.90;;;;;;5117843;28;20464;-62
2023/06/10 03:03:47;;;;;;;16.00;14.60;;;15.50;99.90;;;;;;5117085;28;20464;-62
2023/06/10 03:06:15;;;;;;;17.30;15.70;;;15.50;99.90;;;;;;5118002;28;20498;-62
2023/06/10 03:08:42;;;;;;;17.70;16.23;;;15.50;99.90;;;;;;5118176;28;20462;-62
2023/06/10 03:11:10;;;;;;;16.87;15.47;;;15.50;99.90;;;;;;5117521;28;20459;-62
2023/06/10 03:13:37;;;;;;;16.80;15.20;;;15.40;99.90;;;;;;5118168;28;20459;-63
2023/06/10 03:16:04;;;;;;;16.80;15.47;;;15.40;99.90;;;;;;5117385;28;20459;-63
2023/06/10 03:18:32;;;;;;;16.50;15.10;;;15.40;99.90;;;;;;5117779;28;20797;-62
2023/06/10 03:21:00;;;;;;;16.03;14.63;;;15.40;99.90;;;;;;5117761;28;20464;-63
2023/06/10 03:23:28;;;;;;;16.80;15.40;;;15.40;99.90;;;;;;5117765;28;20459;-62
2023/06/10 03:25:56;;;;;;;17.20;15.70;;;15.40;99.90;;;;;;5117668;28;20464;-64
2023/06/10 03:28:23;;;;;;;17.03;15.60;;;15.40;99.90;;;;;;5117660;28;20474;-63
2023/06/10 03:30:51;;;;;;;16.40;15.00;;;15.40;99.90;;;;;;5117764;28;20459;-62
2023/06/10 03:33:18;;;;;;;15.60;14.30;;;15.40;99.90;;;;;;5117629;28;20470;-62
2023/06/10 03:35:45;;;;;;;17.23;15.73;;;15.40;99.90;;;;;;5117517;28;20477;-62
2023/06/10 03:38:14;;;;;;;17.57;16.07;;;15.40;99.90;;;;;;5117379;28;20490;-62
2023/06/10 03:40:41;;;;;;;17.13;15.60;;;15.40;99.90;;;;;;5117130;28;20558;-62
2023/06/10 03:43:08;;;;;;;18.80;17.10;;;15.30;99.90;;;;;;5117886;28;20462;-63
2023/06/10 03:45:36;;;;;;;16.57;14.87;;;15.30;1.00;;;;;;5117069;28;20470;-63
2023/06/10 03:48:04;;;;;;;15.63;14.23;;;15.30;99.90;;;;;;5117245;28;20506;-63
2023/06/10 03:50:31;;;;;;;16.47;15.07;;;15.30;99.90;;;;;;5117679;28;20455;-63
2023/06/10 03:52:59;;;;;;;15.97;14.57;;;15.30;99.90;;;;;;5117770;28;20735;-62
2023/06/10 03:55:28;;;;;;;17.43;15.93;;;15.20;99.90;;;;;;5117339;28;20506;-63
2023/06/10 03:58:02;;;;;;;16.37;15.03;;;15.30;99.90;;;;;;5116556;28;20487;-63
2023/06/10 04:00:30;;;;;;;17.23;15.73;;;15.30;99.90;;;;;;5117496;28;20760;-63
2023/06/10 04:02:57;;;;;;;17.53;15.87;;;15.30;1.00;;;;;;5116824;28;20582;-63
2023/06/10 04:05:25;;;;;;;16.40;15.00;;;15.30;99.90;;;;;;5117025;28;20903;-63
2023/06/10 04:07:53;;;;;;;18.40;16.70;;;15.30;99.90;;;;;;5117200;28;20880;-63
2023/06/10 04:10:20;;;;;;;17.33;15.83;;;15.40;1.00;;;;;;5117222;28;20910;-63
2023/06/10 04:12:49;;;;;;;18.17;16.57;;;15.40;99.90;;;;;;5117316;28;20459;-63
2023/06/10 04:15:16;;;;;;;16.43;15.03;;;15.50;99.90;;;;;;5118065;28;20459;-63
2023/06/10 04:17:43;;;;;;;16.00;14.60;;;15.50;1.00;;;;;;5121009;28;20487;-63
2023/06/10 04:20:11;;;;;;;16.93;15.50;;;15.50;99.90;;;;;;5121473;28;20462;-62
2023/06/10 04:22:38;;;;;;;17.87;16.47;;;15.60;99.90;;;;;;5120728;27;20884;-63
2023/06/10 04:25:07;;;;;;;19.03;16.20;;;15.60;1.00;;;;;;5121037;28;20486;-62
2023/06/10 04:27:34;;;;;;;17.90;16.30;;;15.60;1.00;;;;;;5120629;28;20553;-63
2023/06/10 04:30:04;;;;;;;20.43;18.50;;;15.70;99.90;;;;;;5120837;28;20880;-62
2023/06/10 04:32:31;;;;;;;18.57;16.97;;;15.70;1.00;;;;;;5120863;28;20470;-63
2023/06/10 04:34:58;;;;;;;18.47;16.87;;;15.80;99.90;;;;;;5120866;28;20486;-63
2023/06/10 04:37:25;;;;;;;18.70;17.10;;;15.80;1.00;;;;;;5120521;28;20498;-63
2023/06/10 04:39:52;;;;;;;18.63;16.97;;;15.90;1.00;;;;;;5120931;28;20484;-63
2023/06/10 04:42:19;;;;;;;18.17;16.57;;;15.90;1.00;;;;;;5120295;28;20465;-63
2023/06/10 04:44:46;;;;;;;18.60;16.80;;;16.00;1.00;;;;;;5121083;28;20481;-62
2023/06/10 04:47:17;;;;;;;18.10;16.60;;;16.00;1.00;;;;;;5120974;28;20451;-63
2023/06/10 04:49:44;;;;;;;18.53;16.90;;;16.10;1.00;;;;;;5120505;28;20463;-63
2023/06/10 04:52:11;;;;;;;18.90;17.10;;;16.10;1.00;;;;;;5120496;28;20907;-62
2023/06/10 04:54:38;;;;;;;18.03;16.33;;;16.10;1.00;;;;;;5120709;28;20554;-63
2023/06/10 04:57:07;;;;;;;18.17;16.43;;;16.20;1.00;;;;;;5120414;28;20487;-63
2023/06/10 04:59:37;;;;;;;16.47;15.17;;;16.20;1.00;;;;;;5120253;28;20477;-63
2023/06/10 05:02:04;;;;;;;17.43;15.83;;;16.30;1.00;;;;;;5119688;28;20487;-63
2023/06/10 05:04:33;;;;;;;16.93;15.47;;;16.40;1.00;;;;;;5120723;28;20455;-62
2023/06/10 05:07:00;;;;;;;15.90;14.50;;;16.50;99.90;;;;;;5115772;28;20888;-62
2023/06/10 05:09:27;;;;;;;14.83;13.50;;;16.60;99.90;;;;;;5119817;28;20463;-62
2023/06/10 05:11:55;;;;;;;13.80;12.60;;;16.70;99.90;;;;;;5119060;28;20462;-62
2023/06/10 05:14:22;;;;;;;14.77;13.60;;;16.70;99.90;;;;;;5119931;28;20930;-63
2023/06/10 05:16:49;;;;;;;16.70;15.30;;;16.90;99.90;;;;;;5120233;28;20461;-62
2023/06/10 05:19:17;;;;;;;15.20;13.90;;;17.00;99.90;;;;;;5119265;28;20451;-62
2023/06/10 05:21:46;;;;;;;16.00;14.30;;;17.10;99.90;;;;;;5119599;28;20463;-62
2023/06/10 05:24:13;;;;;;;15.87;14.47;;;17.20;99.90;;;;;;5118622;28;20459;-62
2023/06/10 05:26:41;;;;;;;16.37;14.97;;;17.30;71.40;;;;;;5118481;27;20508;-62
2023/06/10 05:29:09;;;;;;;15.87;14.40;;;17.40;95.30;;;;;;5118430;28;20466;-62
2023/06/10 05:31:36;;;;;;;17.23;15.50;;;17.50;32.30;;;;;;5118529;28;20542;-62
2023/06/10 05:34:03;;;;;;;13.93;12.57;;;17.70;1.00;;;;;;5118626;28;20758;-62
2023/06/10 05:36:30;;;;;;;15.33;13.77;;;17.80;1.00;;;;;;5118804;27;20887;-62
2023/06/10 05:38:59;;;;;;;14.50;13.20;;;18.00;22.90;;;;;;5118946;28;20916;-62
2023/06/10 05:41:26;;;;;;;14.70;13.30;;;18.10;1.00;;;;;;5118383;28;20554;-62
2023/06/10 05:43:53;;;;;;;14.70;13.30;;;18.30;1.00;;;;;;5118507;28;20459;-63
2023/06/10 05:46:21;;;;;;;13.70;12.60;;;18.60;99.90;;;;;;5118789;28;20534;-62
2023/06/10 05:48:48;;;;;;;12.80;11.57;;;18.90;99.90;;;;;;5118782;28;20760;-63
2023/06/10 05:51:15;;;;;;;14.67;13.53;;;19.10;99.90;;;;;;5118882;28;20899;-63
2023/06/10 05:53:42;;;;;;;13.27;12.07;;;19.30;99.90;;;;;;5118868;28;20463;-63
2023/06/10 05:56:11;;;;;;;12.77;11.53;;;19.70;99.90;;;;;;5119336;28;20460;-63
2023/06/10 05:58:38;;;;;;;14.27;12.20;;;20.00;99.90;;;;;;5118826;28;20510;-63
2023/06/10 06:01:05;;;;;;;14.10;12.80;;;20.30;72.40;;;;;;5118612;28;20816;-63
2023/06/10 06:03:32;;;;;;;12.67;11.67;;;20.50;1.00;;;;;;5117975;28;20517;-63
2023/06/10 06:05:59;;;;;;;12.40;11.40;;;20.70;1.00;;;;;;5117813;28;20494;-63
2023/06/10 06:08:26;;;;;;;11.60;10.70;;;20.90;1.00;;;;;;5118402;28;20542;-63
2023/06/10 06:10:54;;;;;;;12.27;11.17;;;21.20;1.00;;;;;;5118118;28;20473;-63
2023/06/10 06:13:22;;;;;;;12.50;11.40;;;21.40;99.90;;;;;;5116736;28;20547;-63
2023/06/10 06:15:49;;;;;;;11.93;10.90;;;21.50;99.90;;;;;;5117769;28;20538;-63
2023/06/10 06:18:18;;;;;;;11.23;10.23;;;21.70;99.90;;;;;;5118038;28;20491;-62
2023/06/10 06:20:45;;;;;;;12.30;11.13;;;21.90;99.90;;;;;;5118695;27;20473;-63
2023/06/10 06:23:13;;;;;;;11.93;10.83;;;22.10;99.90;;;;;;5118866;28;20455;-63
2023/06/10 06:25:40;;;;;;;12.33;11.27;;;22.30;1.00;;;;;;5117788;28;20463;-63
2023/06/10 06:28:08;;;;;;;12.20;10.93;;;22.50;1.00;;;;;;5118465;28;20452;-63
2023/06/10 06:30:37;;;;;;;11.40;10.50;;;22.60;1.00;;;;;;5118490;28;20498;-63
2023/06/10 06:33:04;;;;;;;11.27;10.37;;;22.80;1.00;;;;;;5118389;28;20462;-63
2023/06/10 06:35:34;;;;;;;11.13;9.70;;;22.90;1.00;;;;;;5118121;28;20461;-65
2023/06/10 06:38:01;;;;;;;10.80;9.90;;;22.70;1.00;;;;;;5117855;28;20487;-64
2023/06/10 06:40:28;;;;;;;10.80;9.90;;;22.70;1.00;;;;;;5118186;28;20550;-63
2023/06/10 06:42:55;;;;;;;10.50;9.70;;;23.20;1.00;;;;;;5118539;28;20460;-63
2023/06/10 06:45:22;;;;;;;9.80;9.10;;;23.50;1.00;;;;;;5118221;28;20873;-63
2023/06/10 06:47:51;;;;;;;10.60;9.80;;;23.80;1.00;;;;;;5117306;28;20455;-64
2023/06/10 06:50:18;;;;;;;14.13;9.77;;;24.00;1.00;;;;;;5117685;28;20469;-63
2023/06/10 06:52:45;;;;;;;10.50;9.50;;;24.20;1.00;;;;;;5118107;28;20460;-63
2023/06/10 06:55:12;;;;;;;10.50;9.80;;;24.50;99.90;;;;;;5117955;28;20454;-64
2023/06/10 06:57:39;;;;;;;10.20;9.40;;;24.70;1.00;;;;;;5117494;28;20488;-63
2023/06/10 07:00:09;;;;;;;10.80;10.00;;;24.70;1.00;;;;;;5117624;28;20542;-63
2023/06/10 07:02:36;;;;;;;9.53;8.83;;;24.90;99.90;;;;;;5117566;28;20497;-61
2023/06/10 07:05:05;;;;;;;10.07;9.17;;;24.90;99.90;;;;;;5118201;28;20518;-63
2023/06/10 07:07:32;;;;;;;10.40;9.70;;;25.00;99.90;;;;;;5116782;28;20470;-63
2023/06/10 07:10:00;;;;;;;9.90;9.03;;;25.30;99.90;;;;;;5116939;28;20558;-63
2023/06/10 07:12:27;;;;;;;8.93;8.23;;;25.40;99.90;;;;;;5116136;28;20767;-63
2023/06/10 07:14:54;;;;;;;10.03;8.97;;;25.60;99.90;;;;;;5116591;28;20459;-63
2023/06/10 07:17:21;;;;;;;9.53;8.73;;;25.80;99.90;;;;;;5117122;28;20470;-62
2023/06/10 07:19:48;;;;;;;10.13;9.13;;;26.00;99.90;;;;;;5117376;28;20898;-63
2023/06/10 07:22:17;;;;;;;10.40;9.50;;;26.10;99.90;;;;;;5117649;28;20508;-62
2023/06/10 07:24:44;;;;;;;10.70;9.80;;;26.30;99.90;;;;;;5117994;28;20455;-62
2023/06/10 07:27:11;;;;;;;10.27;9.33;;;26.30;99.90;;;;;;5117106;28;20474;-62
2023/06/10 07:29:38;;;;;;;9.50;8.70;;;26.50;99.90;;;;;;5116534;28;20459;-62
2023/06/10 07:32:06;;;;;;;9.37;8.67;;;26.50;99.90;;;;;;5116073;28;20460;-62
2023/06/10 07:34:33;;;;;;;9.43;8.63;;;26.70;99.90;;;;;;5115730;28;20946;-63
2023/06/10 07:37:00;;;;;;;9.43;8.63;;;26.90;99.90;;;;;;5117025;28;20550;-62
2023/06/10 07:39:29;;;;;;;9.90;9.00;;;27.20;99.90;;;;;;5115385;28;20526;-64
2023/06/10 07:41:57;;;;;;;10.23;9.53;;;27.60;99.90;;;;;;5115329;28;20553;-62
2023/06/10 07:44:25;;;;;;;10.37;9.23;;;27.70;99.90;;;;;;5115426;28;20463;-63
2023/06/10 07:46:52;;;;;;;9.77;8.97;;;28.00;99.90;;;;;;5115770;28;20864;-62
2023/06/10 07:49:19;;;;;;;8.87;8.27;;;27.70;99.90;;;;;;5115029;28;20877;-63
2023/06/10 07:51:46;;;;;;;10.40;9.50;;;27.70;99.90;;;;;;5118759;28;20463;-63
2023/06/10 07:54:13;;;;;;;9.33;8.63;;;28.00;99.90;;;;;;5119780;28;20546;-63
2023/06/10 07:56:42;;;;;;;9.17;8.37;;;28.20;99.90;;;;;;5119726;28;20459;-63
2023/06/10 07:59:09;;;;;;;8.50;7.80;;;28.30;99.90;;;;;;5119782;28;20889;-62
2023/06/10 08:01:39;;;;;;;9.43;8.73;;;28.50;99.90;;;;;;5119400;28;20483;-62
2023/06/10 08:04:07;;;;;;;9.87;8.87;;;28.50;29.40;;;;;;5120108;28;20860;-62
2023/06/10 08:06:34;;;;;;;10.00;9.20;;;28.50;27.50;;;;;;5119639;28;20558;-62
2023/06/10 08:09:01;;;;;;;9.27;8.47;;;28.70;33.90;;;;;;5118558;28;20516;-59
2023/06/10 08:11:29;;;;;;;9.57;8.87;;;28.90;20.70;;;;;;5121025;28;20581;-61
2023/06/10 08:13:58;;;;;;;9.27;8.57;;;28.80;36.10;;;;;;5121707;28;20502;-62
2023/06/10 08:16:25;;;;;;;8.83;8.03;;;29.10;22.10;;;;;;5119765;28;20471;-63
2023/06/10 08:18:52;;;;;;;9.60;8.70;;;29.30;34.50;;;;;;5120986;28;20522;-63
2023/06/10 08:21:20;;;;;;;10.17;9.37;;;29.60;39.30;;;;;;5120255;28;20539;-62
2023/06/10 08:23:47;;;;;;;10.17;9.27;;;30.00;39.30;;;;;;5121159;28;20868;-62
2023/06/10 08:26:14;;;;;;;9.50;8.70;;;30.00;1.00;;;;;;5121000;28;20473;-62
2023/06/10 08:28:41;;;;;;;8.97;8.30;;;29.70;1.00;;;;;;5118157;28;20470;-62
2023/06/10 08:31:10;;;;;;;9.33;8.43;;;30.10;1.00;;;;;;5120774;28;20461;-62
2023/06/10 08:33:37;;;;;;;10.10;9.20;;;30.30;1.00;;;;;;5112766;28;20569;-62
2023/06/10 08:36:04;;;;;;;9.73;8.93;;;30.00;1.00;;;;;;5119220;28;20915;-59
2023/06/10 08:38:32;;;;;;;9.40;8.60;;;30.10;1.00;;;;;;5114309;28;20490;-61
2023/06/10 08:41:01;;;;;;;9.67;8.83;;;29.80;1.00;;;;;;5121110;28;20459;-62
2023/06/10 08:43:34;;;;;;;8.77;8.10;;;29.50;1.00;;;;;;5120805;28;20463;-63
2023/06/10 08:46:03;;;;;;;8.87;8.27;;;29.50;1.00;;;;;;5120819;28;20513;-64
2023/06/10 08:48:34;;;;;;;9.87;9.17;;;29.80;1.00;;;;;;5120263;28;20452;-63
2023/06/10 08:51:03;;;;;;;10.30;9.00;;;30.10;1.00;;;;;;5114806;28;20988;-63
2023/06/10 08:53:33;;;;;;;10.40;9.60;;;30.20;1.00;;;;;;5119648;28;20900;-63
2023/06/10 08:56:02;;;;;;;9.30;8.60;;;30.10;1.00;;;;;;5117349;28;20467;-63
2023/06/10 08:58:31;;;;;;;9.53;8.83;;;30.30;1.00;;;;;;5118327;28;20509;-65
2023/06/10 09:00:59;;;;;;;9.23;8.53;;;30.30;1.00;;;;;;5120556;28;20455;-62
2023/06/10 09:03:27;;;;;;;9.70;8.77;;;30.40;1.00;;;;;;5119131;28;20486;-61
2023/06/10 09:05:57;;;;;;;9.20;8.40;;;30.00;1.00;;;;;;5119371;28;20781;-63
2023/06/10 09:08:25;;;;;;;10.53;9.37;;;29.90;1.00;;;;;;5120513;28;20451;-63
2023/06/10 09:10:53;;;;;;;9.73;9.03;;;30.50;1.00;;;;;;5102895;28;20471;-63
2023/06/10 09:13:20;;;;;;;8.90;8.30;;;31.00;1.00;;;;;;5100827;28;20517;-64
2023/06/10 09:15:48;;;;;;;9.13;8.50;;;31.50;85.80;;;;;;5117379;28;20916;-63
2023/06/10 09:18:16;;;;;;;9.67;8.80;;;31.80;1.00;;;;;;5119429;28;20573;-61
2023/06/10 09:20:44;;;;;;;9.23;8.53;;;31.80;1.00;;;;;;5120181;28;20465;-64
2023/06/10 09:23:14;;;;;;;8.70;8.00;;;32.00;1.00;;;;;;5116797;28;20471;-61
2023/06/10 09:25:41;;;;;;;9.07;8.40;;;31.50;1.00;;;;;;5120458;28;20960;-63
2023/06/10 09:28:15;;;;;;;8.20;7.60;;;30.30;1.00;;;;;;5120332;28;20762;-63
2023/06/10 09:30:42;;;;;;;9.20;8.40;;;30.60;1.00;;;;;;5120124;28;20458;-62
2023/06/10 09:33:13;;;;;;;8.87;8.23;;;30.60;99.90;;;;;;5120231;28;20463;-62
2023/06/10 09:35:50;;;;;;;9.20;8.30;;;30.80;99.90;;;;;;5119801;28;20565;-64
2023/06/10 09:38:22;;;;;;;8.87;8.17;;;31.10;96.90;;;;;;5119493;28;20497;-61
2023/06/10 09:40:53;;;;;;;9.47;8.53;;;31.90;99.90;;;;;;5120176;28;20498;-62
2023/06/10 09:43:20;;;;;;;8.53;7.83;;;31.80;99.90;;;;;;5119060;28;20455;-62
2023/06/10 09:45:49;;;;;;;8.73;7.93;;;32.30;99.90;;;;;;5115818;28;20906;-63
2023/06/10 09:48:17;;;;;;;9.13;8.33;;;32.10;99.90;;;;;;5098176;28;20505;-62
2023/06/10 09:50:44;;;;;;;8.60;8.00;;;31.30;56.40;;;;;;5097629;28;21042;-63
2023/06/10 09:53:12;;;;;;;9.33;8.50;;;31.40;1.00;;;;;;5098110;28;20889;-64
2023/06/10 09:55:42;;;;;;;9.90;8.90;;;32.20;32.50;;;;;;5098864;28;20498;-64
2023/06/10 09:58:10;;;;;;;8.30;7.50;;;32.70;94.30;;;;;;5099093;28;20956;-62
2023/06/10 10:00:37;;;;;;;8.80;8.10;;;32.20;50.50;;;;;;5098564;28;20460;-62
2023/06/10 10:03:06;;;;;;;8.93;8.03;;;32.40;1.00;;;;;;5098256;28;20519;-62
2023/06/10 10:05:33;;;;;;;7.60;7.10;;;32.70;95.30;;;;;;5098596;28;20460;-61
2023/06/10 10:08:01;;;;;;;8.30;7.70;;;32.60;99.90;;;;;;5098741;28;20555;-62
2023/06/10 10:10:28;;;;;;;9.70;8.13;;;32.50;1.00;;;;;;5102133;28;20451;-61
2023/06/10 10:12:57;;;;;;;9.10;8.47;;;33.00;1.00;;;;;;5118838;28;20501;-63
2023/06/10 10:15:29;;;;;;;8.40;7.60;;;33.30;1.00;;;;;;5118481;28;20465;-63
2023/06/10 10:18:03;;;;;;;8.67;7.93;;;33.40;1.00;;;;;;5119097;28;20466;-62
2023/06/10 10:20:34;;;;;;;8.30;7.57;;;33.40;1.00;;;;;;5118617;28;20486;-63
2023/06/10 10:23:04;;;;;;;8.93;8.20;;;33.60;1.00;;;;;;5119203;28;20458;-61
2023/06/10 10:25:37;;;;;;;8.70;8.10;;;33.40;1.00;;;;;;5117830;28;20876;-62
2023/06/10 10:28:09;;;;;;;9.47;8.63;;;33.10;1.00;;;;;;5115166;28;20465;-61
2023/06/10 10:30:42;;;;;;;9.20;8.50;;;33.50;1.00;;;;;;5116867;28;20487;-61
2023/06/10 10:33:17;;;;;;;9.97;9.07;;;33.50;1.00;;;;;;5118608;28;20518;-62
2023/06/10 10:35:45;;;;;;;8.60;8.00;;;31.80;1.00;;;;;;5118416;28;20462;-63
2023/06/10 10:38:13;;;;;;;9.03;8.07;;;32.10;1.00;;;;;;5116965;28;20459;-61
2023/06/10 10:40:41;;;;;;;9.70;8.83;;;32.60;99.90;;;;;;5116889;28;20483;-64
2023/06/10 10:43:11;;;;;;;9.17;8.47;;;32.70;99.90;;;;;;5117497;28;20931;-62
2023/06/10 10:45:38;;;;;;;10.67;8.20;;;33.50;1.00;;;;;;5114652;28;20955;-63
2023/06/10 10:48:11;;;;;;;9.60;8.70;;;34.00;1.00;;;;;;5116016;28;20462;-64
2023/06/10 10:50:40;;;;;;;9.50;8.63;;;34.50;1.00;;;;;;5116973;28;20542;-63
2023/06/10 10:53:07;;;;;;;8.83;8.23;;;33.20;1.00;;;;;;5117059;28;20461;-61
2023/06/10 10:55:34;;;;;;;8.67;7.60;;;33.20;99.90;;;;;;5114244;28;20450;-63
2023/06/10 10:58:05;;;;;;;8.70;8.00;;;33.80;1.00;;;;;;5115320;28;20454;-63
2023/06/10 11:00:35;;;;;;;9.40;8.60;;;34.20;1.00;;;;;;5117010;28;20508;-60
2023/06/10 11:03:08;;;;;;;9.63;9.03;;;33.90;1.00;;;;;;5117136;28;20478;-63
2023/06/10 11:05:40;;;;;;;9.63;8.60;;;33.70;99.90;;;;;;5117688;28;20462;-62
2023/06/10 11:08:08;;;;;;;9.33;8.60;;;33.60;99.90;;;;;;5117994;28;20888;-61
2023/06/10 11:10:36;;;;;;;8.50;8.00;;;33.20;99.90;;;;;;5117508;28;20970;-62
2023/06/10 11:13:09;;;;;;;9.40;8.50;;;32.80;99.90;;;;;;5117241;28;20461;-62
2023/06/10 11:15:46;;;;;;;9.83;8.47;;;32.30;99.90;;;;;;5116596;28;20451;-62
2023/06/10 11:18:23;;;;;;;9.07;8.27;;;31.80;99.90;;;;;;5118455;28;20463;-60
2023/06/10 11:21:00;;;;;;;10.60;9.60;;;30.80;99.90;;;;;;5117416;28;20501;-62
2023/06/10 11:23:41;;;;;;;8.97;8.37;;;31.00;99.90;;;;;;5115402;28;20458;-62
2023/06/10 11:26:20;;;;;;;13.77;8.97;;;31.40;99.90;;;;;;5113634;28;20840;-62
2023/06/10 11:29:09;;;;;;;9.97;9.17;;;31.50;99.90;;;;;;5114008;28;20447;-63
2023/06/10 11:31:47;;;;;;;9.90;9.00;;;31.80;99.90;;;;;;5088729;28;20516;-62
2023/06/10 11:34:14;;;;;;;9.60;8.83;;;31.70;99.90;;;;;;5116305;28;20816;-61
2023/06/10 11:36:45;;;;;;;10.60;9.70;;;31.40;99.90;;;;;;5110219;28;20455;-61
2023/06/10 11:39:13;;;;;;;10.43;9.40;;;31.10;99.90;;;;;;5116027;28;20575;-61
2023/06/10 11:41:41;;;;;;;9.03;8.17;;;31.40;99.90;;;;;;5115992;28;20554;-61
2023/06/10 11:44:12;;;;;;;9.53;8.83;;;32.30;99.90;;;;;;5115796;28;20463;-62
2023/06/10 11:46:42;;;;;;;9.40;8.23;;;33.00;99.90;;;;;;5115787;28;20494;-62
2023/06/10 11:49:10;;;;;;;9.00;8.30;;;32.90;99.90;;;;;;5116044;28;20463;-59
2023/06/10 11:51:40;;;;;;;9.30;8.63;;;33.60;99.90;;;;;;5111612;28;20471;-61
2023/06/10 11:54:10;;;;;;;9.83;9.13;;;33.60;99.90;;;;;;5112834;28;20455;-60
2023/06/10 11:56:37;;;;;;;9.70;8.53;;;33.60;99.90;;;;;;5098528;28;20978;-62
2023/06/10 11:59:07;;;;;;;9.53;8.60;;;32.90;99.90;;;;;;5115983;28;20497;-62
2023/06/10 12:01:36;;;;;;;9.40;8.70;;;33.00;99.90;;;;;;5114900;28;20869;-61
2023/06/10 12:04:05;;;;;;;9.50;8.80;;;33.00;99.90;;;;;;5115659;28;20463;-61
2023/06/10 12:06:44;;;;;;;8.70;8.00;;;33.20;99.90;;;;;;5112879;28;20782;-61
2023/06/10 12:09:16;;;;;;;9.00;8.30;;;33.40;99.90;;;;;;5114047;28;20900;-61
2023/06/10 12:11:44;;;;;;;8.93;8.13;;;33.50;99.90;;;;;;5113424;28;20489;-59
2023/06/10 12:14:11;;;;;;;8.33;7.73;;;34.20;99.90;;;;;;5113116;28;20463;-60
2023/06/10 12:16:38;;;;;;;10.60;8.33;;;33.80;99.90;;;;;;5113581;28;20716;-61
2023/06/10 12:19:06;;;;;;;9.43;8.73;;;33.90;99.90;;;;;;5114902;28;20741;-62
2023/06/10 12:21:35;;;;;;;9.57;8.87;;;33.30;99.90;;;;;;5115179;28;20520;-61
2023/06/10 12:24:06;;;;;;;9.50;8.80;;;32.60;99.90;;;;;;5112191;28;20820;-62
2023/06/10 12:26:41;;;;;;;8.53;7.80;;;32.30;99.90;;;;;;5114279;28;20455;-61
2023/06/10 12:29:18;;;;;;;9.10;8.30;;;32.10;99.90;;;;;;5113269;28;20557;-61
2023/06/10 12:32:00;;;;;;;9.50;8.80;;;32.20;99.90;;;;;;5116484;28;20469;-62
2023/06/10 12:34:37;;;;;;;8.37;7.77;;;32.20;99.90;;;;;;5116146;28;20541;-62
2023/06/10 12:37:06;;;;;;;9.10;8.40;;;33.00;99.90;;;;;;5117782;28;20462;-63
2023/06/10 12:39:35;;;;;;;9.20;8.50;;;33.50;99.90;;;;;;5118909;28;20490;-62
2023/06/10 12:42:03;;;;;;;8.83;8.03;;;34.00;99.90;;;;;;5117345;28;20463;-61
2023/06/10 12:44:31;;;;;;;8.87;8.17;;;34.30;99.90;;;;;;5118848;28;20473;-61